sensor_id;sensor_type;location;lat;lon;timestamp;temperature;humidity
4386;DHT22;2207;53.540;10.042;2023-09-07T09:14:42;28.70;76.40
4386;DHT22;2207;53.540;10.042;2023-09-07T09:21:24;28.80;50.30
4386;DHT22;2207;53.540;10.042;2023-09-07T09:23:52;28.40;50.20
4386;DHT22;2207;53.540;10.042;2023-09-07T09:26:19;28.20;52.20
4386;DHT22;2207;53.540;10.042;2023-09-07T09:31:41;28.00;52.50
4386;DHT22;2207;53.540;10.042;2023-09-07T09:34:08;28.10;55.60
4386;DHT22;2207;53.540;10.042;2023-09-07T09:36:35;28.20;53.90
4386;DHT22;2207;53.540;10.042;2023-09-07T09:39:03;28.20;53.90
4386;DHT22;2207;53.540;10.042;2023-09-07T09:41:32;28.30;54.20
4386;DHT22;2207;53.540;10.042;2023-09-07T09:43:59;28.50;51.20
4386;DHT22;2207;53.540;10.042;2023-09-07T09:46:28;28.60;51.30
4386;DHT22;2207;53.540;10.042;2023-09-07T09:48:57;28.50;51.20
4386;DHT22;2207;53.540;10.042;2023-09-07T09:51:24;28.50;49.80
4386;DHT22;2207;53.540;10.042;2023-09-07T09:53:58;28.50;49.70
4386;DHT22;2207;53.540;10.042;2023-09-07T09:58:35;28.60;48.20
4386;DHT22;2207;53.540;10.042;2023-09-07T10:01:02;28.60;48.70
4386;DHT22;2207;53.540;10.042;2023-09-07T10:03:33;28.60;48.60
4386;DHT22;2207;53.540;10.042;2023-09-07T10:06:07;28.60;48.50
4386;DHT22;2207;53.540;10.042;2023-09-07T10:08:34;28.60;48.70
4386;DHT22;2207;53.540;10.042;2023-09-07T10:11:07;28.70;48.60
4386;DHT22;2207;53.540;10.042;2023-09-07T10:13:35;28.70;48.50
4386;DHT22;2207;53.540;10.042;2023-09-07T10:16:03;28.70;48.50
4386;DHT22;2207;53.540;10.042;2023-09-07T10:18:33;28.70;48.50
4386;DHT22;2207;53.540;10.042;2023-09-07T10:21:01;28.70;48.40
4386;DHT22;2207;53.540;10.042;2023-09-07T10:23:38;28.80;48.30
4386;DHT22;2207;53.540;10.042;2023-09-07T10:26:05;28.80;48.30
4386;DHT22;2207;53.540;10.042;2023-09-07T10:28:38;28.80;48.30
4386;DHT22;2207;53.540;10.042;2023-09-07T10:31:06;28.80;48.30
4386;DHT22;2207;53.540;10.042;2023-09-07T10:33:34;28.80;48.30
4386;DHT22;2207;53.540;10.042;2023-09-07T10:36:01;28.90;48.40
4386;DHT22;2207;53.540;10.042;2023-09-07T10:38:30;28.90;48.30
4386;DHT22;2207;53.540;10.042;2023-09-07T10:40:58;28.90;48.10
4386;DHT22;2207;53.540;10.042;2023-09-07T10:43:25;29.00;48.00
4386;DHT22;2207;53.540;10.042;2023-09-07T10:45:54;29.00;47.90
4386;DHT22;2207;53.540;10.042;2023-09-07T10:48:22;29.00;47.80
4386;DHT22;2207;53.540;10.042;2023-09-07T10:50:49;29.10;47.80
4386;DHT22;2207;53.540;10.042;2023-09-07T10:53:24;29.10;47.70
4386;DHT22;2207;53.540;10.042;2023-09-07T10:55:53;29.10;47.50
4386;DHT22;2207;53.540;10.042;2023-09-07T10:58:25;29.10;47.30
4386;DHT22;2207;53.540;10.042;2023-09-07T11:00:53;29.20;47.30
4386;DHT22;2207;53.540;10.042;2023-09-07T11:03:20;29.20;47.20
4386;DHT22;2207;53.540;10.042;2023-09-07T11:05:47;29.20;47.20
4386;DHT22;2207;53.540;10.042;2023-09-07T11:08:15;29.20;47.20
4386;DHT22;2207;53.540;10.042;2023-09-07T11:10:41;29.30;47.10
4386;DHT22;2207;53.540;10.042;2023-09-07T11:13:09;29.30;46.80
4386;DHT22;2207;53.540;10.042;2023-09-07T11:15:36;29.30;46.80
4386;DHT22;2207;53.540;10.042;2023-09-07T11:18:06;29.40;46.60
4386;DHT22;2207;53.540;10.042;2023-09-07T11:20:34;29.40;46.60
4386;DHT22;2207;53.540;10.042;2023-09-07T11:23:00;29.50;46.60
4386;DHT22;2207;53.540;10.042;2023-09-07T11:25:34;29.50;46.50
4386;DHT22;2207;53.540;10.042;2023-09-07T11:27:59;29.60;46.40
4386;DHT22;2207;53.540;10.042;2023-09-07T11:30:28;29.60;46.10
4386;DHT22;2207;53.540;10.042;2023-09-07T11:33:00;29.60;46.10
4386;DHT22;2207;53.540;10.042;2023-09-07T11:35:28;29.60;46.30
4386;DHT22;2207;53.540;10.042;2023-09-07T11:37:55;29.70;46.00
4386;DHT22;2207;53.540;10.042;2023-09-07T11:40:22;29.70;46.10
4386;DHT22;2207;53.540;10.042;2023-09-07T11:42:49;29.80;46.70
4386;DHT22;2207;53.540;10.042;2023-09-07T11:45:15;29.80;46.00
4386;DHT22;2207;53.540;10.042;2023-09-07T11:47:43;29.80;45.90
4386;DHT22;2207;53.540;10.042;2023-09-07T11:50:10;29.90;45.80
4386;DHT22;2207;53.540;10.042;2023-09-07T11:52:38;29.90;45.60
4386;DHT22;2207;53.540;10.042;2023-09-07T11:55:05;29.90;45.40
4386;DHT22;2207;53.540;10.042;2023-09-07T11:57:31;29.90;45.40
4386;DHT22;2207;53.540;10.042;2023-09-07T11:59:58;30.00;45.40
4386;DHT22;2207;53.540;10.042;2023-09-07T12:02:24;30.00;45.20
4386;DHT22;2207;53.540;10.042;2023-09-07T12:04:52;30.00;45.10
4386;DHT22;2207;53.540;10.042;2023-09-07T12:07:19;30.10;45.20
4386;DHT22;2207;53.540;10.042;2023-09-07T12:09:47;30.10;45.00
4386;DHT22;2207;53.540;10.042;2023-09-07T12:12:14;30.20;45.00
4386;DHT22;2207;53.540;10.042;2023-09-07T12:14:41;30.20;45.10
4386;DHT22;2207;53.540;10.042;2023-09-07T12:17:08;30.30;44.80
4386;DHT22;2207;53.540;10.042;2023-09-07T12:19:35;30.30;44.60
4386;DHT22;2207;53.540;10.042;2023-09-07T12:22:01;30.40;44.70
4386;DHT22;2207;53.540;10.042;2023-09-07T12:24:28;30.40;44.20
4386;DHT22;2207;53.540;10.042;2023-09-07T12:26:56;30.40;43.00
4386;DHT22;2207;53.540;10.042;2023-09-07T12:29:23;30.40;43.20
4386;DHT22;2207;53.540;10.042;2023-09-07T12:31:49;30.50;43.40
4386;DHT22;2207;53.540;10.042;2023-09-07T12:34:16;30.60;43.40
4386;DHT22;2207;53.540;10.042;2023-09-07T12:36:43;30.70;43.30
4386;DHT22;2207;53.540;10.042;2023-09-07T12:39:09;30.70;43.20
4386;DHT22;2207;53.540;10.042;2023-09-07T12:41:38;30.70;43.80
4386;DHT22;2207;53.540;10.042;2023-09-07T12:44:06;30.80;43.00
4386;DHT22;2207;53.540;10.042;2023-09-07T12:46:33;30.80;42.90
4386;DHT22;2207;53.540;10.042;2023-09-07T12:49:00;30.90;42.80
4386;DHT22;2207;53.540;10.042;2023-09-07T12:51:27;30.90;42.70
4386;DHT22;2207;53.540;10.042;2023-09-07T12:53:54;30.90;42.60
4386;DHT22;2207;53.540;10.042;2023-09-07T12:56:20;31.00;42.50
4386;DHT22;2207;53.540;10.042;2023-09-07T12:58:47;31.00;42.70
4386;DHT22;2207;53.540;10.042;2023-09-07T13:01:16;31.00;42.30
4386;DHT22;2207;53.540;10.042;2023-09-07T13:03:43;31.00;42.30
4386;DHT22;2207;53.540;10.042;2023-09-07T13:06:10;31.00;42.20
4386;DHT22;2207;53.540;10.042;2023-09-07T13:08:37;31.10;41.70
4386;DHT22;2207;53.540;10.042;2023-09-07T13:11:03;31.10;42.00
4386;DHT22;2207;53.540;10.042;2023-09-07T13:13:30;31.20;42.00
4386;DHT22;2207;53.540;10.042;2023-09-07T13:15:57;31.20;41.70
4386;DHT22;2207;53.540;10.042;2023-09-07T13:18:25;31.20;41.80
4386;DHT22;2207;53.540;10.042;2023-09-07T13:20:52;31.30;41.50
4386;DHT22;2207;53.540;10.042;2023-09-07T13:23:24;31.40;41.20
4386;DHT22;2207;53.540;10.042;2023-09-07T13:25:51;31.50;41.20
4386;DHT22;2207;53.540;10.042;2023-09-07T13:28:17;31.50;41.10
4386;DHT22;2207;53.540;10.042;2023-09-07T13:30:44;31.60;41.00
4386;DHT22;2207;53.540;10.042;2023-09-07T13:33:11;31.60;41.00
4386;DHT22;2207;53.540;10.042;2023-09-07T13:35:45;31.60;41.20
4386;DHT22;2207;53.540;10.042;2023-09-07T13:38:12;31.70;40.80
4386;DHT22;2207;53.540;10.042;2023-09-07T13:40:39;31.80;40.50
4386;DHT22;2207;53.540;10.042;2023-09-07T13:43:06;31.90;40.00
4386;DHT22;2207;53.540;10.042;2023-09-07T13:45:33;32.20;39.70
4386;DHT22;2207;53.540;10.042;2023-09-07T13:48:00;33.40;37.70
4386;DHT22;2207;53.540;10.042;2023-09-07T13:50:27;34.70;35.50
4386;DHT22;2207;53.540;10.042;2023-09-07T13:52:56;35.50;34.00
4386;DHT22;2207;53.540;10.042;2023-09-07T13:55:22;36.10;32.90
4386;DHT22;2207;53.540;10.042;2023-09-07T13:57:50;36.60;32.00
4386;DHT22;2207;53.540;10.042;2023-09-07T14:00:17;36.90;31.90
4386;DHT22;2207;53.540;10.042;2023-09-07T14:02:43;37.20;31.30
4386;DHT22;2207;53.540;10.042;2023-09-07T14:05:10;37.40;30.60
4386;DHT22;2207;53.540;10.042;2023-09-07T14:07:37;37.40;30.50
4386;DHT22;2207;53.540;10.042;2023-09-07T14:10:06;37.70;30.30
4386;DHT22;2207;53.540;10.042;2023-09-07T14:12:32;37.70;30.00
4386;DHT22;2207;53.540;10.042;2023-09-07T14:14:59;37.80;29.90
4386;DHT22;2207;53.540;10.042;2023-09-07T14:17:26;38.00;29.50
4386;DHT22;2207;53.540;10.042;2023-09-07T14:19:52;38.10;29.40
4386;DHT22;2207;53.540;10.042;2023-09-07T14:22:19;38.20;29.40
4386;DHT22;2207;53.540;10.042;2023-09-07T14:24:45;38.20;29.40
4386;DHT22;2207;53.540;10.042;2023-09-07T14:27:13;38.40;29.30
4386;DHT22;2207;53.540;10.042;2023-09-07T14:29:40;38.50;29.10
4386;DHT22;2207;53.540;10.042;2023-09-07T14:32:06;38.60;28.90
4386;DHT22;2207;53.540;10.042;2023-09-07T14:34:33;38.60;28.90
4386;DHT22;2207;53.540;10.042;2023-09-07T14:37:00;38.60;28.90
4386;DHT22;2207;53.540;10.042;2023-09-07T14:39:27;38.50;29.20
4386;DHT22;2207;53.540;10.042;2023-09-07T14:41:54;38.60;29.40
4386;DHT22;2207;53.540;10.042;2023-09-07T14:44:22;38.70;28.90
4386;DHT22;2207;53.540;10.042;2023-09-07T14:46:49;38.70;28.90
4386;DHT22;2207;53.540;10.042;2023-09-07T14:49:15;38.30;28.50
4386;DHT22;2207;53.540;10.042;2023-09-07T14:51:43;38.30;28.70
4386;DHT22;2207;53.540;10.042;2023-09-07T14:54:09;38.40;28.80
4386;DHT22;2207;53.540;10.042;2023-09-07T14:56:36;38.40;28.50
4386;DHT22;2207;53.540;10.042;2023-09-07T14:59:03;38.10;28.40
4386;DHT22;2207;53.540;10.042;2023-09-07T15:01:31;38.10;28.40
